Weather History for Pinedale, WY

Change the Weather History Date:

Thursday, November 8, 2012

  Actual Average (KBPI) Record (KBPI)
Temperature  
Mean Temperature 38 °F 28 °F  
Max Temperature 55 °F 43 °F 61 °F (1999)
Min Temperature 21 °F 13 °F -4 °F (1990)
Degree Days  
Heating Degree Days 27 37  
Month to date heating degree days 282  
Since 1 July heating degree days 1862  
Cooling Degree Days 0 0  
Month to date cooling degree days 0  
Year to date cooling degree days 35  
Moisture  
Dew Point 22 °F    
Average Humidity 61    
Maximum Humidity 100    
Minimum Humidity 26    
Precipitation  
Precipitation 0.00 in 0.01 in 0.06 in (2002)
Month to date precipitation 0.06  
Year to date precipitation 6.03  
Sea Level Pressure  
Sea Level Pressure 29.83 in    
Wind  
Wind Speed 6 mph (South)    
Max Wind Speed 21 mph    
Max Gust Speed 30 mph    
Visibility 10 miles    
Events      
T = Trace of Precipitation, MM = Missing Value Source: NWS Daily Summary

Daily Weather History Graph

Daily Weather History Graph

Search for Another Location

Airport:

Trip Planner

Search our weather history database for the weather conditions in past years. The results will help you decide how hot, cold, wet, or windy it might be!

Date:

Astronomy

Nov. 08, 2012 Rise Set
Actual Time 7:02 AM MST 5:02 PM MST
Civil Twilight 6:32 AM MST 5:32 PM MST
Nautical Twilight 5:59 AM MST 6:06 PM MST
Astronomical Twilight 5:25 AM MST 6:39 PM MST
Moon 12:53 AM MST (11/8) 1:52 PM MST (11/8)
Length of Visible Light 10h 59m
Length of Day
9h 59m
Waning Crescent, 32% of the Moon is Illuminated
Nov 8
Waning Crescent
Nov 13
New
Nov 20
First Quarter
Nov 28
Full
Dec 6
Last Quarter

Hourly Weather History & Observations

Time (MST) Temp. Windchill Dew Point Humidity Pressure Visibility Wind Dir Wind Speed Gust Speed Precip Events Conditions
12:15 AM 26.6 °F 21.2 °F 21.2 °F 80% 30.02 in 10.0 mi NW 4.6 mph - N/A   Clear
12:35 AM 24.8 °F 19.1 °F 21.2 °F 86% 30.01 in 10.0 mi NW 4.6 mph - N/A   Scattered Clouds
12:55 AM 23.0 °F 17.0 °F 21.2 °F 93% 30.01 in 10.0 mi WNW 4.6 mph - N/A   Scattered Clouds
1:15 AM 23.0 °F 14.7 °F 21.2 °F 93% 30.01 in 10.0 mi WNW 6.9 mph - N/A   Scattered Clouds
1:35 AM 23.0 °F 17.0 °F 21.2 °F 93% 30.00 in 10.0 mi WNW 4.6 mph - N/A   Scattered Clouds
1:55 AM 23.0 °F 17.0 °F 21.2 °F 93% 30.00 in 10.0 mi WNW 4.6 mph - N/A   Scattered Clouds
2:15 AM 23.0 °F 17.0 °F 21.2 °F 93% 30.00 in 10.0 mi NW 4.6 mph - N/A   Scattered Clouds
2:35 AM 23.0 °F 17.0 °F 21.2 °F 93% 29.99 in 10.0 mi West 4.6 mph - N/A   Clear
2:55 AM 23.0 °F 17.0 °F 21.2 °F 93% 29.98 in 10.0 mi WNW 4.6 mph - N/A   Clear
3:15 AM 21.2 °F - 21.2 °F 100% 29.97 in 10.0 mi Calm Calm - N/A   Clear
3:35 AM 23.0 °F - 21.2 °F 93% 29.97 in 10.0 mi Calm Calm - N/A   Clear
3:55 AM 23.0 °F - 21.2 °F 93% 29.97 in 10.0 mi Calm Calm - N/A   Clear
4:15 AM 23.0 °F - 21.2 °F 93% 29.97 in 10.0 mi Calm Calm - N/A   Clear
4:35 AM 24.8 °F 20.5 °F 23.0 °F 93% 29.97 in 10.0 mi East 3.5 mph - N/A   Clear
4:55 AM 23.0 °F - 21.2 °F 93% 29.96 in 10.0 mi Calm Calm - N/A   Clear
5:15 AM 21.2 °F 16.4 °F 21.2 °F 100% 29.96 in 10.0 mi WSW 3.5 mph - N/A   Clear
5:55 AM 23.0 °F - 21.2 °F 93% 29.94 in 10.0 mi Calm Calm - N/A   Clear
6:15 AM 24.8 °F 19.1 °F 21.2 °F 86% 29.93 in 10.0 mi NW 4.6 mph - N/A   Clear
6:35 AM 21.2 °F 16.4 °F 21.2 °F 100% 29.93 in 10.0 mi NW 3.5 mph - N/A   Clear
6:55 AM 21.2 °F 14.9 °F 19.4 °F 93% 29.93 in 10.0 mi NW 4.6 mph - N/A   Clear
7:15 AM 21.2 °F 16.4 °F 21.2 °F 100% 29.93 in 10.0 mi West 3.5 mph - N/A   Clear
7:35 AM 23.0 °F - 23.0 °F 100% 29.93 in 10.0 mi Calm Calm - N/A   Clear
7:55 AM 26.6 °F - 24.8 °F 93% 29.92 in 10.0 mi Calm Calm - N/A   Clear
8:15 AM 30.2 °F - 26.6 °F 86% 29.92 in 10.0 mi Calm Calm - N/A   Clear
8:35 AM 33.8 °F - 26.6 °F 75% 29.92 in 10.0 mi Calm Calm - N/A   Clear
8:55 AM 37.4 °F 33.8 °F 26.6 °F 65% 29.91 in 10.0 mi East 4.6 mph - N/A   Clear
9:35 AM 42.8 °F 39.3 °F 26.6 °F 53% 29.89 in 10.0 mi ESE 5.8 mph - N/A   Clear
9:55 AM 44.6 °F 40.7 °F 26.6 °F 49% 29.88 in 10.0 mi ESE 6.9 mph - N/A   Clear
10:15 AM 50.0 °F - 24.8 °F 37% 29.87 in 10.0 mi SE 10.4 mph 16.1 mph N/A   Clear
10:35 AM 50.0 °F - 24.8 °F 37% 29.86 in 10.0 mi SSE 11.5 mph - N/A   Clear
10:55 AM 51.8 °F - 24.8 °F 35% 29.85 in 10.0 mi SSE 13.8 mph 17.3 mph N/A   Clear
11:15 AM 51.8 °F - 23.0 °F 33% 29.84 in 10.0 mi SE 11.5 mph 18.4 mph N/A   Clear
11:35 AM 53.6 °F - 23.0 °F 30% 29.82 in 10.0 mi SSE 9.2 mph 19.6 mph N/A   Clear
11:55 AM 53.6 °F - 23.0 °F 30% 29.80 in 10.0 mi SSE 10.4 mph 17.3 mph N/A   Clear
12:15 PM 53.6 °F - 23.0 °F 30% 29.79 in 10.0 mi South 17.3 mph 20.7 mph N/A   Scattered Clouds
12:35 PM 53.6 °F - 23.0 °F 30% 29.77 in 10.0 mi South 17.3 mph 25.3 mph N/A   Clear
12:55 PM 53.6 °F - 23.0 °F 30% 29.76 in 10.0 mi SSE 17.3 mph 24.2 mph N/A   Clear
1:15 PM 55.4 °F - 21.2 °F 26% 29.76 in 10.0 mi South 12.7 mph 24.2 mph N/A   Clear
1:35 PM 55.4 °F - 21.2 °F 26% 29.75 in 10.0 mi SSW 15.0 mph 23.0 mph N/A   Clear
1:55 PM 55.4 °F - 21.2 °F 26% 29.75 in 10.0 mi SSW 13.8 mph 21.9 mph N/A   Clear
2:15 PM 55.4 °F - 21.2 °F 26% 29.74 in 10.0 mi South 17.3 mph 23.0 mph N/A   Clear
2:35 PM 55.4 °F - 21.2 °F 26% 29.74 in 10.0 mi SSW 20.7 mph 29.9 mph N/A   Mostly Cloudy
2:55 PM 53.6 °F - 21.2 °F 28% 29.74 in 10.0 mi South 10.4 mph 16.1 mph N/A   Overcast
3:15 PM 53.6 °F - 19.4 °F 26% 29.73 in 10.0 mi SSW 13.8 mph 19.6 mph N/A   Overcast
3:35 PM 53.6 °F - 19.4 °F 26% 29.73 in 10.0 mi South 12.7 mph 17.3 mph N/A   Overcast
3:55 PM 53.6 °F - 19.4 °F 26% 29.74 in 10.0 mi SW 16.1 mph 23.0 mph N/A   Mostly Cloudy
4:15 PM 53.6 °F - 19.4 °F 26% 29.74 in 10.0 mi SW 12.7 mph - N/A   Clear
4:35 PM 51.8 °F - 21.2 °F 30% 29.74 in 10.0 mi SW 9.2 mph - N/A   Clear
4:55 PM 50.0 °F - 21.2 °F 32% 29.73 in 10.0 mi South 4.6 mph - N/A   Clear
5:15 PM 44.6 °F 42.2 °F 21.2 °F 39% 29.73 in 10.0 mi SSW 4.6 mph - N/A   Clear
5:35 PM 42.8 °F 39.3 °F 19.4 °F 39% 29.73 in 10.0 mi SSW 5.8 mph - N/A   Clear
5:55 PM 41.0 °F - 19.4 °F 42% 29.73 in 10.0 mi Calm Calm - N/A   Clear
6:15 PM 37.4 °F 33.8 °F 21.2 °F 52% 29.72 in 10.0 mi ESE 4.6 mph - N/A   Clear
6:35 PM 35.6 °F 29.9 °F 19.4 °F 52% 29.72 in 10.0 mi ESE 6.9 mph - N/A   Clear
6:55 PM 33.8 °F 29.6 °F 21.2 °F 60% 29.71 in 10.0 mi East 4.6 mph - N/A   Clear
7:15 PM 33.8 °F 29.6 °F 21.2 °F 60% 29.71 in 10.0 mi East 4.6 mph - N/A   Clear
7:35 PM 33.8 °F 30.8 °F 21.2 °F 60% 29.69 in 10.0 mi SE 3.5 mph - N/A   Clear
7:55 PM 35.6 °F 31.7 °F 21.2 °F 56% 29.69 in 10.0 mi ESE 4.6 mph - N/A   Scattered Clouds
8:15 PM 35.6 °F 29.2 °F 21.2 °F 56% 29.69 in 10.0 mi SE 8.1 mph - N/A   Mostly Cloudy
8:35 PM 35.6 °F 30.7 °F 21.2 °F 56% 29.69 in 10.0 mi SE 5.8 mph - N/A   Mostly Cloudy
8:55 PM 35.6 °F 29.2 °F 21.2 °F 56% 29.69 in 10.0 mi SSE 8.1 mph - N/A   Mostly Cloudy
9:15 PM 37.4 °F 31.4 °F 21.2 °F 52% 29.69 in 10.0 mi SSE 8.1 mph - N/A   Mostly Cloudy
9:35 PM 33.8 °F 25.8 °F 21.2 °F 60% 29.69 in 10.0 mi East 10.4 mph - N/A   Mostly Cloudy
9:55 PM 32.0 °F 24.2 °F 21.2 °F 64% 29.69 in 10.0 mi ESE 9.2 mph - N/A   Scattered Clouds
10:15 PM 32.0 °F 26.4 °F 21.2 °F 64% 29.69 in 10.0 mi SE 5.8 mph - N/A   Scattered Clouds
10:35 PM 32.0 °F 25.6 °F 21.2 °F 64% 29.69 in 10.0 mi SE 6.9 mph - N/A   Scattered Clouds
10:55 PM 33.8 °F 26.4 °F 21.2 °F 60% 29.68 in 10.0 mi SE 9.2 mph - N/A   Scattered Clouds
11:15 PM 33.8 °F 26.4 °F 21.2 °F 60% 29.69 in 10.0 mi SE 9.2 mph - N/A   Scattered Clouds
11:35 PM 33.8 °F 26.4 °F 21.2 °F 60% 29.69 in 10.0 mi ESE 9.2 mph - N/A   Mostly Cloudy
11:55 PM 33.8 °F 27.7 °F 21.2 °F 60% 29.69 in 10.0 mi SE 6.9 mph - N/A   Mostly Cloudy